San Juan, PR

3:55 PM AST en Octubre 23, 2014 (GMT -0400)
Condado, Calle Earle, At The Ocean | Change Station
CLOSE
Current Station
Estación meteorológica personal
Location: San Juan, SAN JUAN
Altura: 10 ft
Estaciones meteorológicas cercanas

Alt 10 ft 18.46 °N, 66.07 °W | Updated 2 seconds ago

Scattered Clouds
Nubes dispersas
85.0 ° F
Sensación térmica 96 ° F
N
7.0
Viento Variable Viento desde NNE
Gusts 20.0 mph

Hoy
Alta -- | Baja -- ° F
--% Posibilidad de precipitaciones
Ayer
Alta -- | Baja -- ° F
Precip. -- pul
6:20 AM 5:56 PM
Creciente menguante, 0% visible
Presión 29.86 pul
Visibilidad 10.0 Millas
Nubes Baja 3800 ft
Nubes dispersas 4600 ft
Nubes dispersas 5500 ft
Índice de calor 96 ° F
Punto de rocío 77 ° F
Humedad 78%
Precipitaciones 0.00 pul
Espesor de la nieve No disponible.
UV 4 de una escala de 12
Polen No disponible.
Calidad del aire No disponible.
Flu Activity Local Activity
METAR TJSJ 231856Z 06011KT 10SM FEW038 SCT046 SCT055 31/26 A2986 RMK AO2 SLP110 T03110256

More Conditions Fewer Conditions

Presión 29.86 pul
Visibilidad 10.0 Millas
Nubes Baja 3800 ft
Nubes dispersas 4600 ft
Nubes dispersas 5500 ft
Índice de calor 96 ° F
Punto de rocío 77 ° F
Humedad 78%
Precipitaciones 0.00 pul
Espesor de la nieve No disponible.
UV 4 de una escala de 12
Polen No disponible.
Calidad del aire No disponible.
Flu Activity Local Activity
METAR TJSJ 231856Z 06011KT 10SM FEW038 SCT046 SCT055 31/26 A2986 RMK AO2 SLP110 T03110256

More Conditions Fewer Conditions

10-Day Weather Forecast

Almanac

Astronomía

Oct. 23, 2014 Salida Puesta
Hora real 6:20 AM AST 5:56 PM AST
Crepúsculo civil 5:58 AM AST 6:18 PM AST
Crepúsculo náutico 5:32 AM AST 6:44 PM AST
Crepúsculo astronómico 5:07 AM AST 7:09 PM AST
Luna 6:00 AM AST 5:55 PM AST
Horas de luz 12h 20m
Horas de luz
11h 35m
Tomorrow will be 0m 58s shorter.
Creciente menguante, 0% of the Moon is Illuminated
Hoy
Creciente menguante
Oct 23
Nueva
Oct 30
Cuarto creciente
Nov 6
Luna llena
Nov 14
Cuarto menguante

Community

WunderPhotos

Upload Photos

1,764,350 ¡fotos cargadas!

WunderBlogs® & News

By Dr. Jeff Masters
Director of Meteorology, Weather Underground
By Kari Strenfel
Meteorologist, Weather Underground
By Christopher C. Burt
Weather Historian, Weather Underground
October 23, 2014
October 23, 2014
October 23, 2014

Nearby

Calidad del aire

Not available.

Grosos de nieve

Estación Profundido Altura
No tenemos constancia de nieve nueva.

Actividad de terremotos

Ciudad Distance Mag. Tiempo y dato
No hay informes recientes de la actividad sísmica.
Magnitud mínima muestra es 2,5.

Temperaturas de aguas costeras

Lugar Temperatura
San Juan, PR 86.0 ° F
Mayaguez, PR 87.1 ° F
Esperanza, PR 86.0 ° F

Estaciones meteorológicas cercanas